createdAt,value
2024-01-14T00:02:44.866Z,1.19
2024-01-14T00:07:47.144Z,1.15
2024-01-14T00:12:49.324Z,1.21
2024-01-14T00:17:51.475Z,1.21
2024-01-14T00:22:53.724Z,1.20
2024-01-14T00:27:55.907Z,1.25
2024-01-14T00:32:58.059Z,1.30
2024-01-14T00:38:01.212Z,1.32
2024-01-14T00:43:03.827Z,1.18
2024-01-14T00:48:06.208Z,1.21
2024-01-14T00:53:08.422Z,1.14
2024-01-14T00:58:10.486Z,1.22
2024-01-14T01:03:12.935Z,1.12
2024-01-14T01:08:15.053Z,1.23
2024-01-14T01:13:17.189Z,1.14
2024-01-14T01:18:19.277Z,1.23
2024-01-14T01:23:21.408Z,1.22
2024-01-14T01:28:23.570Z,1.24
2024-01-14T01:33:25.980Z,1.12
2024-01-14T01:38:28.121Z,1.03
2024-01-14T01:43:30.282Z,1.19
2024-01-14T01:48:34.639Z,1.23
2024-01-14T01:53:37.526Z,1.30
2024-01-14T01:58:40.966Z,1.33
2024-01-14T02:03:43.723Z,1.25
2024-01-14T02:08:45.887Z,1.23
2024-01-14T02:13:47.960Z,1.29
2024-01-14T02:18:50.207Z,1.26
2024-01-14T02:24:04.577Z,1.24
2024-01-14T02:29:08.444Z,1.22
2024-01-14T02:34:11.658Z,1.16
2024-01-14T02:39:13.863Z,1.05
2024-01-14T02:44:16.612Z,1.15
2024-01-14T02:49:19.044Z,1.13
2024-01-14T02:54:21.074Z,1.02
2024-01-14T02:59:23.097Z,1.06
2024-01-14T03:04:25.155Z,1.15
2024-01-14T03:09:27.295Z,1.09
2024-01-14T03:14:29.362Z,1.06
2024-01-14T03:19:31.609Z,1.12
2024-01-14T03:24:34.498Z,1.08
2024-01-14T03:29:36.598Z,1.00
2024-01-14T03:34:38.699Z,0.92
2024-01-14T03:39:42.250Z,0.88
2024-01-14T03:44:44.272Z,0.92
2024-01-14T03:49:46.539Z,0.97
2024-01-14T03:54:48.665Z,0.92
2024-01-14T03:59:50.768Z,0.94
2024-01-14T04:04:54.262Z,0.87
2024-01-14T04:09:56.662Z,1.06
2024-01-14T04:14:58.871Z,1.05
2024-01-14T04:20:01.725Z,1.01
2024-01-14T04:25:04.092Z,0.89
2024-01-14T04:30:07.139Z,0.95
2024-01-14T04:35:09.305Z,0.95
2024-01-14T04:40:11.768Z,0.92
2024-01-14T04:45:13.748Z,0.96
2024-01-14T04:50:16.277Z,0.91
2024-01-14T04:55:18.826Z,0.97
2024-01-14T05:00:20.854Z,1.02
2024-01-14T05:05:22.892Z,1.07
2024-01-14T05:10:24.898Z,0.94
2024-01-14T05:15:26.960Z,0.94
2024-01-14T05:20:29.072Z,0.97
2024-01-14T05:25:31.176Z,1.05
2024-01-14T05:30:33.386Z,1.04
2024-01-14T05:35:35.887Z,1.14
2024-01-14T05:40:37.999Z,1.09
2024-01-14T05:45:40.732Z,1.03
2024-01-14T05:50:42.852Z,1.05
2024-01-14T05:55:45.291Z,1.09
2024-01-14T06:00:47.458Z,1.15
2024-01-14T06:05:49.682Z,1.10
2024-01-14T06:10:51.864Z,1.11
2024-01-14T06:15:53.928Z,1.10
2024-01-14T06:21:01.524Z,1.16
2024-01-14T06:26:03.560Z,0.98
2024-01-14T06:31:08.885Z,1.05
2024-01-14T06:36:11.171Z,0.98
2024-01-14T06:41:20.263Z,0.96
2024-01-14T06:46:22.198Z,1.04
2024-01-14T06:51:24.183Z,1.01
2024-01-14T06:56:26.827Z,1.02
2024-01-14T07:01:28.834Z,1.14
2024-01-14T07:06:30.918Z,1.15
2024-01-14T07:11:32.972Z,1.15
2024-01-14T07:16:36.908Z,1.20
2024-01-14T07:21:39.211Z,1.18
2024-01-14T07:26:41.206Z,1.11
2024-01-14T07:31:43.316Z,1.15
2024-01-14T07:36:45.324Z,1.16
2024-01-14T07:41:47.290Z,1.12
2024-01-14T07:46:49.306Z,1.13
2024-01-14T07:51:51.395Z,1.11
2024-01-14T07:56:53.852Z,1.21
2024-01-14T08:01:55.970Z,1.19
2024-01-14T08:06:58.015Z,1.21
2024-01-14T08:12:00.089Z,1.21
2024-01-14T08:17:02.118Z,1.30
2024-01-14T08:22:04.267Z,1.20
2024-01-14T08:27:06.303Z,1.15
2024-01-14T08:32:08.374Z,1.18
2024-01-14T08:37:10.378Z,1.20
2024-01-14T08:42:12.536Z,1.16
2024-01-14T08:47:15.287Z,1.13
2024-01-14T08:52:17.272Z,1.10
2024-01-14T08:57:19.783Z,1.17
2024-01-14T09:02:22.675Z,1.16
2024-01-14T09:07:25.906Z,1.21
2024-01-14T09:12:28.623Z,1.16
2024-01-14T09:17:31.449Z,1.22
2024-01-14T09:22:33.706Z,1.22
2024-01-14T09:27:36.441Z,1.24
2024-01-14T09:32:38.646Z,1.19
2024-01-14T09:37:40.687Z,1.02
2024-01-14T09:42:46.114Z,1.13
2024-01-14T09:47:49.375Z,1.01
2024-01-14T09:52:53.043Z,0.99
2024-01-14T09:57:59.870Z,0.93
2024-01-14T10:03:04.715Z,0.76
2024-01-14T10:08:07.911Z,0.83
2024-01-14T10:13:09.928Z,0.75
2024-01-14T10:18:12.046Z,0.83
2024-01-14T10:23:17.788Z,0.74
2024-01-14T10:28:20.132Z,0.84
2024-01-14T10:33:23.818Z,0.82
2024-01-14T10:38:26.821Z,0.90
2024-01-14T10:43:29.733Z,0.85
2024-01-14T10:48:40.079Z,0.87
2024-01-14T10:53:53.404Z,0.92
2024-01-14T10:58:57.711Z,0.88
2024-01-14T11:04:02.081Z,0.86
2024-01-14T11:09:04.392Z,0.74
2024-01-14T11:14:22.685Z,0.67
2024-01-14T11:19:36.831Z,0.62
2024-01-14T11:24:40.588Z,0.75
2024-01-14T11:29:42.639Z,0.83
2024-01-14T11:34:47.635Z,0.71
2024-01-14T11:39:51.438Z,0.79
2024-01-14T11:44:54.311Z,0.76
2024-01-14T11:49:56.629Z,0.83
2024-01-14T11:54:58.978Z,0.80
2024-01-14T12:00:01.762Z,0.84
2024-01-14T12:05:19.583Z,0.77
2024-01-14T12:10:21.798Z,0.86
2024-01-14T12:15:23.834Z,0.83
2024-01-14T12:20:27.716Z,0.82
2024-01-14T12:30:49.607Z,0.91
2024-01-14T12:35:52.110Z,1.03
2024-01-14T12:40:54.803Z,1.01
2024-01-14T12:45:57.637Z,0.96
2024-01-14T12:51:01.080Z,1.08
2024-01-14T12:56:14.077Z,1.05
2024-01-14T13:01:16.438Z,1.13
2024-01-14T13:06:18.747Z,1.04
2024-01-14T13:11:20.959Z,1.10
2024-01-14T13:16:23.724Z,1.00
2024-01-14T13:21:25.979Z,1.03
2024-01-14T13:26:29.419Z,1.09
2024-01-14T13:31:33.069Z,1.02
2024-01-14T13:36:35.304Z,0.99
2024-01-14T13:41:37.331Z,0.99
2024-01-14T13:46:39.307Z,1.02
2024-01-14T13:51:41.735Z,1.06
2024-01-14T13:56:44.613Z,0.93
2024-01-14T14:01:46.701Z,0.86
2024-01-14T14:06:48.828Z,0.94
2024-01-14T14:11:50.911Z,0.80
2024-01-14T14:16:53.064Z,0.76
2024-01-14T14:22:00.298Z,0.78
2024-01-14T14:27:04.447Z,0.74
2024-01-14T14:32:10.146Z,0.75
2024-01-14T14:37:12.156Z,0.81
2024-01-14T14:42:14.563Z,0.86
2024-01-14T14:47:18.635Z,0.87
2024-01-14T14:52:22.066Z,0.76
2024-01-14T14:57:24.150Z,0.80
2024-01-14T15:02:26.152Z,0.82
2024-01-14T15:07:28.818Z,0.76
2024-01-14T15:12:31.120Z,0.69
2024-01-14T15:17:33.115Z,0.78
2024-01-14T15:22:35.160Z,0.80
2024-01-14T15:27:38.616Z,0.78
2024-01-14T15:32:40.909Z,0.70
2024-01-14T15:37:43.118Z,0.68
2024-01-14T15:42:46.784Z,0.70
2024-01-14T15:47:48.822Z,0.64
2024-01-14T15:52:50.950Z,0.65
2024-01-14T15:57:53.019Z,0.59
2024-01-14T16:02:55.058Z,0.72
2024-01-14T16:07:57.180Z,0.59
2024-01-14T16:12:59.271Z,0.68
2024-01-14T16:18:01.650Z,0.66
2024-01-14T16:23:06.445Z,0.67
2024-01-14T16:28:08.584Z,0.56
2024-01-14T16:33:12.467Z,0.53
2024-01-14T16:38:14.817Z,0.57
2024-01-14T16:43:16.760Z,0.72
2024-01-14T16:48:18.772Z,0.62
2024-01-14T16:53:20.881Z,0.74
2024-01-14T16:58:22.915Z,0.68
2024-01-14T17:03:25.043Z,0.63
2024-01-14T17:08:27.285Z,0.65
2024-01-14T17:13:29.441Z,0.65
2024-01-14T17:18:31.593Z,0.62
2024-01-14T17:23:33.715Z,0.49
2024-01-14T17:28:42.017Z,0.58
2024-01-14T17:33:48.075Z,0.51
2024-01-14T17:38:51.678Z,0.56
2024-01-14T17:43:53.793Z,0.62
2024-01-14T17:48:55.928Z,0.59
2024-01-14T17:53:58.252Z,0.46
2024-01-14T17:59:00.283Z,0.46
2024-01-14T18:04:03.227Z,0.59
2024-01-14T18:09:05.294Z,0.63
2024-01-14T18:14:07.338Z,0.62
2024-01-14T18:19:09.497Z,0.50
2024-01-14T18:24:14.587Z,0.54
2024-01-14T18:29:17.248Z,0.63
2024-01-14T18:34:20.227Z,0.50
2024-01-14T18:39:24.570Z,0.39
2024-01-14T18:44:28.706Z,0.48
2024-01-14T18:49:30.829Z,0.46
2024-01-14T18:54:33.043Z,0.52
2024-01-14T18:59:34.998Z,0.54
2024-01-14T19:04:37.169Z,0.53
2024-01-14T19:09:39.265Z,0.54
2024-01-14T19:14:41.322Z,0.52
2024-01-14T19:19:43.535Z,0.47
2024-01-14T19:24:45.764Z,0.49
2024-01-14T19:29:48.284Z,0.32
2024-01-14T19:34:50.401Z,0.31
2024-01-14T19:39:52.537Z,0.29
2024-01-14T19:44:54.629Z,0.22
2024-01-14T19:49:56.918Z,0.32
2024-01-14T19:54:59.101Z,0.28
2024-01-14T20:00:07.163Z,0.30
2024-01-14T20:05:12.306Z,0.33
2024-01-14T20:10:14.437Z,0.27
2024-01-14T20:15:16.585Z,0.21
2024-01-14T20:20:18.717Z,0.14
2024-01-14T20:25:20.883Z,0.17
2024-01-14T20:30:24.060Z,0.18
2024-01-14T20:35:26.239Z,0.16
2024-01-14T20:40:28.359Z,0.11
2024-01-14T20:45:30.844Z,0.04
2024-01-14T20:50:32.898Z,0.01
2024-01-14T20:55:35.028Z,0.01
2024-01-14T21:00:37.109Z,-0.03
2024-01-14T21:05:39.162Z,0.03
2024-01-14T21:10:41.154Z,0.02
2024-01-14T21:15:43.545Z,-0.06
2024-01-14T21:20:45.588Z,-0.09
2024-01-14T21:25:47.730Z,-0.06
2024-01-14T21:30:49.872Z,-0.03
2024-01-14T21:35:52.884Z,-0.06
2024-01-14T21:40:54.927Z,0.01
2024-01-14T21:45:58.081Z,-0.04
2024-01-14T21:51:01.618Z,-0.03
2024-01-14T21:56:03.959Z,-0.05
2024-01-14T22:01:06.098Z,0.09
2024-01-14T22:06:08.455Z,0.08
2024-01-14T22:11:12.348Z,-0.04
2024-01-14T22:16:14.430Z,-0.07
2024-01-14T22:21:16.381Z,-0.14
2024-01-14T22:26:18.385Z,-0.07
2024-01-14T22:31:20.664Z,-0.08
2024-01-14T22:36:22.786Z,-0.06
2024-01-14T22:41:24.803Z,-0.05
2024-01-14T22:46:26.801Z,0.00
2024-01-14T22:51:28.985Z,0.04
2024-01-14T22:56:31.162Z,0.05
2024-01-14T23:01:33.298Z,0.04
2024-01-14T23:06:35.563Z,0.09
2024-01-14T23:11:37.698Z,0.13
2024-01-14T23:16:40.220Z,0.07
2024-01-14T23:21:43.647Z,0.13
2024-01-14T23:26:45.697Z,0.14
2024-01-14T23:31:47.970Z,0.19
2024-01-14T23:36:50.547Z,0.18
2024-01-14T23:41:52.694Z,0.20
2024-01-14T23:46:54.965Z,0.23
2024-01-14T23:51:57.273Z,0.23
2024-01-14T23:56:59.455Z,0.26
